sensor_id;sensor_type;location;lat;lon;timestamp;pressure;altitude;pressure_sealevel;temperature;humidity
13869;BME280;7004;48.206;16.402;2023-05-02T00:00:46;99654.47;;;15.01;70.16
13869;BME280;7004;48.206;16.402;2023-05-02T00:03:12;99652.81;;;15.21;69.48
13869;BME280;7004;48.206;16.402;2023-05-02T00:05:38;99656.13;;;15.02;70.12
13869;BME280;7004;48.206;16.402;2023-05-02T00:08:05;99660.59;;;15.13;69.81
13869;BME280;7004;48.206;16.402;2023-05-02T00:10:32;99666.13;;;15.21;69.22
13869;BME280;7004;48.206;16.402;2023-05-02T00:12:58;99659.91;;;14.99;70.84
13869;BME280;7004;48.206;16.402;2023-05-02T00:15:24;99659.06;;;14.99;72.07
13869;BME280;7004;48.206;16.402;2023-05-02T00:17:53;99661.97;;;14.96;71.54
13869;BME280;7004;48.206;16.402;2023-05-02T00:20:19;99661.56;;;14.79;72.85
13869;BME280;7004;48.206;16.402;2023-05-02T00:22:45;99661.47;;;14.47;74.00
13869;BME280;7004;48.206;16.402;2023-05-02T00:25:12;99660.03;;;14.54;73.23
13869;BME280;7004;48.206;16.402;2023-05-02T00:27:45;99660.00;;;14.77;72.33
13869;BME280;7004;48.206;16.402;2023-05-02T00:30:12;99661.13;;;14.29;74.07
13869;BME280;7004;48.206;16.402;2023-05-02T00:32:38;99665.63;;;14.06;76.46
13869;BME280;7004;48.206;16.402;2023-05-02T00:35:06;99661.50;;;14.58;73.26
13869;BME280;7004;48.206;16.402;2023-05-02T00:37:32;99666.06;;;14.68;72.60
13869;BME280;7004;48.206;16.402;2023-05-02T00:39:59;99664.28;;;14.57;73.28
13869;BME280;7004;48.206;16.402;2023-05-02T00:42:26;99660.38;;;14.50;73.31
13869;BME280;7004;48.206;16.402;2023-05-02T00:44:56;99658.34;;;14.64;73.19
13869;BME280;7004;48.206;16.402;2023-05-02T00:47:22;99660.25;;;14.74;72.02
13869;BME280;7004;48.206;16.402;2023-05-02T00:49:49;99661.47;;;14.70;73.13
13869;BME280;7004;48.206;16.402;2023-05-02T00:52:15;99661.38;;;14.26;74.30
13869;BME280;7004;48.206;16.402;2023-05-02T00:54:42;99661.00;;;14.64;73.58
13869;BME280;7004;48.206;16.402;2023-05-02T00:57:09;99664.25;;;14.34;75.09
13869;BME280;7004;48.206;16.402;2023-05-02T00:59:36;99677.56;;;14.01;76.64
13869;BME280;7004;48.206;16.402;2023-05-02T01:02:37;99673.59;;;14.17;76.38
13869;BME280;7004;48.206;16.402;2023-05-02T01:05:16;99678.66;;;14.20;76.24
13869;BME280;7004;48.206;16.402;2023-05-02T01:08:16;99682.25;;;13.63;79.52
13869;BME280;7004;48.206;16.402;2023-05-02T01:11:04;99680.34;;;13.76;78.63
13869;BME280;7004;48.206;16.402;2023-05-02T01:13:34;99680.63;;;13.96;77.74
13869;BME280;7004;48.206;16.402;2023-05-02T01:16:03;99680.81;;;13.70;80.08
13869;BME280;7004;48.206;16.402;2023-05-02T01:18:34;99684.81;;;13.65;79.79
13869;BME280;7004;48.206;16.402;2023-05-02T01:21:07;99688.44;;;13.97;78.95
13869;BME280;7004;48.206;16.402;2023-05-02T01:26:53;99681.06;;;13.79;80.37
13869;BME280;7004;48.206;16.402;2023-05-02T01:29:24;99686.88;;;13.95;78.99
13869;BME280;7004;48.206;16.402;2023-05-02T01:31:54;99687.13;;;14.26;79.10
13869;BME280;7004;48.206;16.402;2023-05-02T01:34:22;99684.59;;;14.35;78.75
13869;BME280;7004;48.206;16.402;2023-05-02T01:36:50;99689.28;;;14.66;77.06
13869;BME280;7004;48.206;16.402;2023-05-02T01:39:21;99692.19;;;14.29;79.32
13869;BME280;7004;48.206;16.402;2023-05-02T01:41:51;99677.06;;;14.74;77.94
13869;BME280;7004;48.206;16.402;2023-05-02T01:44:22;99682.63;;;14.71;78.46
13869;BME280;7004;48.206;16.402;2023-05-02T01:46:52;99684.44;;;15.35;75.18
13869;BME280;7004;48.206;16.402;2023-05-02T01:49:22;99686.75;;;15.07;76.87
13869;BME280;7004;48.206;16.402;2023-05-02T01:51:50;99695.50;;;14.98;78.20
13869;BME280;7004;48.206;16.402;2023-05-02T01:54:19;99688.47;;;15.29;75.96
13869;BME280;7004;48.206;16.402;2023-05-02T01:56:50;99690.63;;;15.57;73.99
13869;BME280;7004;48.206;16.402;2023-05-02T01:59:19;99689.97;;;15.43;75.90
13869;BME280;7004;48.206;16.402;2023-05-02T02:01:50;99694.59;;;15.62;74.40
13869;BME280;7004;48.206;16.402;2023-05-02T02:04:18;99692.78;;;15.63;74.14
13869;BME280;7004;48.206;16.402;2023-05-02T02:06:51;99696.63;;;15.49;74.44
13869;BME280;7004;48.206;16.402;2023-05-02T02:09:18;99696.56;;;15.81;72.67
13869;BME280;7004;48.206;16.402;2023-05-02T02:12:16;99698.53;;;16.10;70.00
13869;BME280;7004;48.206;16.402;2023-05-02T02:14:55;99708.47;;;16.08;70.17
13869;BME280;7004;48.206;16.402;2023-05-02T02:17:35;99704.84;;;16.09;70.45
13869;BME280;7004;48.206;16.402;2023-05-02T02:20:09;99698.47;;;16.00;70.62
13869;BME280;7004;48.206;16.402;2023-05-02T02:22:40;99706.66;;;16.39;68.47
13869;BME280;7004;48.206;16.402;2023-05-02T02:25:15;99704.94;;;16.28;69.03
13869;BME280;7004;48.206;16.402;2023-05-02T02:27:42;99699.66;;;16.07;69.00
13869;BME280;7004;48.206;16.402;2023-05-02T02:30:09;99697.63;;;16.00;70.10
13869;BME280;7004;48.206;16.402;2023-05-02T02:32:36;99699.97;;;16.14;70.95
13869;BME280;7004;48.206;16.402;2023-05-02T02:35:02;99699.56;;;15.88;69.19
13869;BME280;7004;48.206;16.402;2023-05-02T02:40:43;99702.47;;;16.06;67.53
13869;BME280;7004;48.206;16.402;2023-05-02T02:44:27;99698.69;;;16.18;67.67
13869;BME280;7004;48.206;16.402;2023-05-02T02:50:12;99703.31;;;16.16;68.69
13869;BME280;7004;48.206;16.402;2023-05-02T02:52:58;99708.34;;;16.09;67.01
13869;BME280;7004;48.206;16.402;2023-05-02T02:55:35;99710.53;;;16.25;67.37
13869;BME280;7004;48.206;16.402;2023-05-02T02:58:59;99713.13;;;16.46;65.89
13869;BME280;7004;48.206;16.402;2023-05-02T03:01:31;99710.25;;;15.98;68.71
13869;BME280;7004;48.206;16.402;2023-05-02T03:03:57;99707.84;;;15.94;69.53
13869;BME280;7004;48.206;16.402;2023-05-02T03:06:24;99710.53;;;15.73;69.16
13869;BME280;7004;48.206;16.402;2023-05-02T03:08:52;99720.00;;;15.87;69.38
13869;BME280;7004;48.206;16.402;2023-05-02T03:11:18;99714.66;;;15.78;69.06
13869;BME280;7004;48.206;16.402;2023-05-02T03:13:44;99721.63;;;15.58;69.17
13869;BME280;7004;48.206;16.402;2023-05-02T03:16:48;99725.56;;;15.42;69.73
13869;BME280;7004;48.206;16.402;2023-05-02T03:19:15;99721.28;;;15.83;68.25
13869;BME280;7004;48.206;16.402;2023-05-02T03:21:41;99726.25;;;15.77;68.84
13869;BME280;7004;48.206;16.402;2023-05-02T03:24:08;99727.97;;;15.45;69.25
13869;BME280;7004;48.206;16.402;2023-05-02T03:26:34;99726.13;;;15.57;69.30
13869;BME280;7004;48.206;16.402;2023-05-02T03:29:00;99732.63;;;15.64;68.78
13869;BME280;7004;48.206;16.402;2023-05-02T03:31:26;99727.69;;;15.27;70.41
13869;BME280;7004;48.206;16.402;2023-05-02T03:33:52;99734.44;;;15.85;68.93
13869;BME280;7004;48.206;16.402;2023-05-02T03:36:19;99738.03;;;15.74;69.15
13869;BME280;7004;48.206;16.402;2023-05-02T03:38:45;99744.06;;;15.76;68.80
13869;BME280;7004;48.206;16.402;2023-05-02T03:41:11;99744.53;;;15.28;70.47
13869;BME280;7004;48.206;16.402;2023-05-02T03:43:37;99745.91;;;15.76;68.61
13869;BME280;7004;48.206;16.402;2023-05-02T03:46:06;99752.13;;;15.33;70.14
13869;BME280;7004;48.206;16.402;2023-05-02T03:48:34;99741.56;;;15.42;69.90
13869;BME280;7004;48.206;16.402;2023-05-02T03:51:02;99751.28;;;15.64;70.18
13869;BME280;7004;48.206;16.402;2023-05-02T03:53:29;99759.03;;;15.56;69.40
13869;BME280;7004;48.206;16.402;2023-05-02T03:55:56;99761.00;;;15.54;68.89
13869;BME280;7004;48.206;16.402;2023-05-02T03:58:23;99751.44;;;15.51;69.80
13869;BME280;7004;48.206;16.402;2023-05-02T04:00:50;99756.56;;;15.76;68.70
13869;BME280;7004;48.206;16.402;2023-05-02T04:03:20;99764.34;;;15.35;69.92
13869;BME280;7004;48.206;16.402;2023-05-02T04:05:46;99762.34;;;15.81;67.89
13869;BME280;7004;48.206;16.402;2023-05-02T04:08:12;99760.22;;;15.63;68.61
13869;BME280;7004;48.206;16.402;2023-05-02T04:10:39;99771.44;;;15.78;68.59
13869;BME280;7004;48.206;16.402;2023-05-02T04:13:05;99779.75;;;15.85;67.18
13869;BME280;7004;48.206;16.402;2023-05-02T04:15:31;99775.19;;;15.43;70.93
13869;BME280;7004;48.206;16.402;2023-05-02T04:17:58;99776.53;;;15.81;68.67
13869;BME280;7004;48.206;16.402;2023-05-02T04:20:24;99782.31;;;16.07;68.05
13869;BME280;7004;48.206;16.402;2023-05-02T04:22:50;99781.53;;;15.63;68.43
13869;BME280;7004;48.206;16.402;2023-05-02T04:25:17;99787.63;;;16.07;67.50
13869;BME280;7004;48.206;16.402;2023-05-02T04:27:43;99788.09;;;15.91;68.08
13869;BME280;7004;48.206;16.402;2023-05-02T04:30:10;99789.50;;;15.75;68.41
13869;BME280;7004;48.206;16.402;2023-05-02T04:32:37;99792.75;;;16.20;67.58
13869;BME280;7004;48.206;16.402;2023-05-02T04:35:04;99787.22;;;16.33;67.19
13869;BME280;7004;48.206;16.402;2023-05-02T04:37:30;99799.69;;;16.53;66.09
13869;BME280;7004;48.206;16.402;2023-05-02T04:39:57;99795.56;;;15.98;67.00
13869;BME280;7004;48.206;16.402;2023-05-02T04:42:23;99795.31;;;16.22;66.44
13869;BME280;7004;48.206;16.402;2023-05-02T04:44:49;99804.47;;;15.87;67.39
13869;BME280;7004;48.206;16.402;2023-05-02T04:47:15;99805.00;;;16.02;67.27
13869;BME280;7004;48.206;16.402;2023-05-02T04:49:42;99811.44;;;16.20;67.41
13869;BME280;7004;48.206;16.402;2023-05-02T04:52:09;99820.41;;;15.98;67.76
13869;BME280;7004;48.206;16.402;2023-05-02T04:54:36;99815.31;;;15.95;67.96
13869;BME280;7004;48.206;16.402;2023-05-02T04:57:02;99812.66;;;16.16;67.01
13869;BME280;7004;48.206;16.402;2023-05-02T04:59:31;99814.19;;;15.88;68.18
13869;BME280;7004;48.206;16.402;2023-05-02T05:01:57;99819.31;;;16.01;67.98
13869;BME280;7004;48.206;16.402;2023-05-02T05:04:23;99823.78;;;16.21;67.46
13869;BME280;7004;48.206;16.402;2023-05-02T05:06:50;99826.91;;;16.26;66.67
13869;BME280;7004;48.206;16.402;2023-05-02T05:09:16;99819.06;;;16.04;66.90
13869;BME280;7004;48.206;16.402;2023-05-02T05:11:42;99823.13;;;16.29;66.15
13869;BME280;7004;48.206;16.402;2023-05-02T05:14:10;99831.59;;;15.60;68.53
13869;BME280;7004;48.206;16.402;2023-05-02T05:16:36;99832.63;;;15.36;69.82
13869;BME280;7004;48.206;16.402;2023-05-02T05:19:02;99836.97;;;15.81;68.78
13869;BME280;7004;48.206;16.402;2023-05-02T05:21:30;99842.66;;;16.08;68.47
13869;BME280;7004;48.206;16.402;2023-05-02T05:23:56;99843.53;;;15.65;69.15
13869;BME280;7004;48.206;16.402;2023-05-02T05:26:22;99841.59;;;16.21;67.50
13869;BME280;7004;48.206;16.402;2023-05-02T05:28:49;99848.66;;;16.22;68.11
13869;BME280;7004;48.206;16.402;2023-05-02T05:31:16;99849.38;;;15.70;69.09
13869;BME280;7004;48.206;16.402;2023-05-02T05:33:42;99843.69;;;15.96;68.59
13869;BME280;7004;48.206;16.402;2023-05-02T05:36:13;99851.63;;;16.28;67.64
13869;BME280;7004;48.206;16.402;2023-05-02T05:38:42;99850.97;;;16.36;67.22
13869;BME280;7004;48.206;16.402;2023-05-02T05:41:08;99850.84;;;16.16;68.13
13869;BME280;7004;48.206;16.402;2023-05-02T05:43:36;99848.56;;;16.12;69.05
13869;BME280;7004;48.206;16.402;2023-05-02T05:46:02;99856.56;;;15.91;69.02
13869;BME280;7004;48.206;16.402;2023-05-02T05:48:28;99855.41;;;16.05;69.16
13869;BME280;7004;48.206;16.402;2023-05-02T05:50:55;99855.81;;;16.42;67.65
13869;BME280;7004;48.206;16.402;2023-05-02T05:53:21;99855.66;;;16.23;68.80
13869;BME280;7004;48.206;16.402;2023-05-02T05:55:47;99861.53;;;16.37;68.35
13869;BME280;7004;48.206;16.402;2023-05-02T05:58:13;99866.19;;;16.45;67.80
13869;BME280;7004;48.206;16.402;2023-05-02T06:00:39;99867.53;;;15.98;68.63
13869;BME280;7004;48.206;16.402;2023-05-02T06:03:07;99874.47;;;16.94;65.67
13869;BME280;7004;48.206;16.402;2023-05-02T06:05:33;99881.47;;;16.85;66.66
13869;BME280;7004;48.206;16.402;2023-05-02T06:07:59;99876.31;;;16.72;65.14
13869;BME280;7004;48.206;16.402;2023-05-02T06:10:26;99875.81;;;16.78;66.30
13869;BME280;7004;48.206;16.402;2023-05-02T06:12:51;99878.69;;;16.66;66.00
13869;BME280;7004;48.206;16.402;2023-05-02T06:15:18;99878.44;;;16.48;66.85
13869;BME280;7004;48.206;16.402;2023-05-02T06:17:44;99876.72;;;16.98;64.17
13869;BME280;7004;48.206;16.402;2023-05-02T06:20:11;99874.03;;;16.37;65.37
13869;BME280;7004;48.206;16.402;2023-05-02T06:22:37;99875.06;;;16.76;64.63
13869;BME280;7004;48.206;16.402;2023-05-02T06:25:05;99872.47;;;16.65;65.79
13869;BME280;7004;48.206;16.402;2023-05-02T06:27:32;99878.00;;;16.73;64.84
13869;BME280;7004;48.206;16.402;2023-05-02T06:29:58;99874.97;;;17.18;65.04
13869;BME280;7004;48.206;16.402;2023-05-02T06:32:24;99885.41;;;16.81;64.53
13869;BME280;7004;48.206;16.402;2023-05-02T06:34:50;99877.44;;;17.51;62.48
13869;BME280;7004;48.206;16.402;2023-05-02T06:37:16;99889.56;;;17.14;63.48
13869;BME280;7004;48.206;16.402;2023-05-02T06:39:42;99891.00;;;17.18;62.46
13869;BME280;7004;48.206;16.402;2023-05-02T06:42:08;99893.38;;;17.62;61.86
13869;BME280;7004;48.206;16.402;2023-05-02T06:44:34;99896.84;;;17.53;60.93
13869;BME280;7004;48.206;16.402;2023-05-02T06:47:00;99891.88;;;17.88;61.87
13869;BME280;7004;48.206;16.402;2023-05-02T06:49:26;99894.00;;;17.35;62.87
13869;BME280;7004;48.206;16.402;2023-05-02T06:51:53;99903.56;;;17.87;61.88
13869;BME280;7004;48.206;16.402;2023-05-02T06:54:19;99907.13;;;17.47;60.43
13869;BME280;7004;48.206;16.402;2023-05-02T06:56:46;99901.94;;;17.65;60.56
13869;BME280;7004;48.206;16.402;2023-05-02T06:59:12;99899.91;;;17.88;59.33
13869;BME280;7004;48.206;16.402;2023-05-02T07:01:38;99903.69;;;18.05;58.75
13869;BME280;7004;48.206;16.402;2023-05-02T07:04:04;99897.34;;;18.45;59.24
13869;BME280;7004;48.206;16.402;2023-05-02T07:06:31;99907.09;;;17.88;57.30
13869;BME280;7004;48.206;16.402;2023-05-02T07:08:57;99895.25;;;18.20;57.47
13869;BME280;7004;48.206;16.402;2023-05-02T07:11:23;99894.72;;;18.83;56.11
13869;BME280;7004;48.206;16.402;2023-05-02T07:13:50;99900.31;;;19.27;54.96
13869;BME280;7004;48.206;16.402;2023-05-02T07:16:16;99906.78;;;18.30;57.29
13869;BME280;7004;48.206;16.402;2023-05-02T07:18:42;99915.34;;;18.63;56.48
13869;BME280;7004;48.206;16.402;2023-05-02T07:21:11;99909.81;;;18.84;55.13
13869;BME280;7004;48.206;16.402;2023-05-02T07:23:37;99916.78;;;18.18;56.06
13869;BME280;7004;48.206;16.402;2023-05-02T07:26:04;99921.44;;;17.97;56.88
13869;BME280;7004;48.206;16.402;2023-05-02T07:28:31;99917.28;;;18.80;55.57
13869;BME280;7004;48.206;16.402;2023-05-02T07:30:57;99918.19;;;18.03;57.19
13869;BME280;7004;48.206;16.402;2023-05-02T07:33:23;99924.38;;;18.13;57.55
13869;BME280;7004;48.206;16.402;2023-05-02T07:35:50;99920.09;;;17.62;56.95
13869;BME280;7004;48.206;16.402;2023-05-02T07:38:16;99931.00;;;17.80;56.82
13869;BME280;7004;48.206;16.402;2023-05-02T07:40:42;99922.25;;;18.36;55.54
13869;BME280;7004;48.206;16.402;2023-05-02T07:43:09;99934.38;;;18.30;55.88
13869;BME280;7004;48.206;16.402;2023-05-02T07:45:35;99937.63;;;18.05;56.71
13869;BME280;7004;48.206;16.402;2023-05-02T07:48:02;99943.97;;;18.14;57.20
13869;BME280;7004;48.206;16.402;2023-05-02T07:50:28;99943.13;;;18.23;56.76
13869;BME280;7004;48.206;16.402;2023-05-02T07:52:55;99946.78;;;17.93;57.01
13869;BME280;7004;48.206;16.402;2023-05-02T07:55:22;99949.44;;;18.02;57.06
13869;BME280;7004;48.206;16.402;2023-05-02T07:57:48;99950.03;;;18.25;58.17
13869;BME280;7004;48.206;16.402;2023-05-02T08:00:14;99958.81;;;17.77;57.00
13869;BME280;7004;48.206;16.402;2023-05-02T08:02:41;99962.25;;;17.89;57.60
13869;BME280;7004;48.206;16.402;2023-05-02T08:05:07;99951.81;;;17.86;57.98
13869;BME280;7004;48.206;16.402;2023-05-02T08:07:34;99964.66;;;18.31;58.37
13869;BME280;7004;48.206;16.402;2023-05-02T08:10:00;99956.94;;;18.08;57.33
13869;BME280;7004;48.206;16.402;2023-05-02T08:12:38;99963.38;;;17.96;58.67
13869;BME280;7004;48.206;16.402;2023-05-02T08:15:07;99961.72;;;17.95;60.00
13869;BME280;7004;48.206;16.402;2023-05-02T08:17:33;99965.06;;;17.97;57.84
13869;BME280;7004;48.206;16.402;2023-05-02T08:19:59;99954.38;;;18.36;57.47
13869;BME280;7004;48.206;16.402;2023-05-02T08:22:26;99963.94;;;18.68;56.62
13869;BME280;7004;48.206;16.402;2023-05-02T08:24:52;99960.50;;;19.05;55.59
13869;BME280;7004;48.206;16.402;2023-05-02T08:27:18;99968.59;;;18.37;56.32
13869;BME280;7004;48.206;16.402;2023-05-02T08:29:44;99968.84;;;18.72;59.01
13869;BME280;7004;48.206;16.402;2023-05-02T08:32:10;99968.44;;;18.77;56.36
13869;BME280;7004;48.206;16.402;2023-05-02T08:34:36;99969.78;;;19.10;56.94
13869;BME280;7004;48.206;16.402;2023-05-02T08:37:08;99967.75;;;18.55;57.20
13869;BME280;7004;48.206;16.402;2023-05-02T08:39:34;99971.72;;;18.22;57.96
13869;BME280;7004;48.206;16.402;2023-05-02T08:42:01;99971.28;;;18.46;57.06
13869;BME280;7004;48.206;16.402;2023-05-02T08:44:27;99979.63;;;17.74;58.56
13869;BME280;7004;48.206;16.402;2023-05-02T08:46:53;99973.81;;;18.38;58.23
13869;BME280;7004;48.206;16.402;2023-05-02T08:49:23;99974.53;;;18.30;58.42
13869;BME280;7004;48.206;16.402;2023-05-02T08:51:50;99966.31;;;18.90;57.32
13869;BME280;7004;48.206;16.402;2023-05-02T08:54:19;99975.03;;;18.73;57.79
13869;BME280;7004;48.206;16.402;2023-05-02T08:56:46;99974.91;;;18.65;56.92
13869;BME280;7004;48.206;16.402;2023-05-02T08:59:12;99975.34;;;18.02;57.91
13869;BME280;7004;48.206;16.402;2023-05-02T09:01:40;99981.00;;;18.38;56.65
13869;BME280;7004;48.206;16.402;2023-05-02T09:04:09;99978.47;;;18.17;57.75
13869;BME280;7004;48.206;16.402;2023-05-02T09:06:35;99971.44;;;18.45;57.92
13869;BME280;7004;48.206;16.402;2023-05-02T09:09:02;99964.63;;;18.89;57.04
13869;BME280;7004;48.206;16.402;2023-05-02T09:11:28;99979.44;;;18.16;58.09
13869;BME280;7004;48.206;16.402;2023-05-02T09:13:57;99960.16;;;18.12;58.51
13869;BME280;7004;48.206;16.402;2023-05-02T09:16:29;99965.38;;;18.33;58.85
13869;BME280;7004;48.206;16.402;2023-05-02T09:19:03;99968.31;;;17.91;60.48
13869;BME280;7004;48.206;16.402;2023-05-02T09:21:39;99980.56;;;17.94;59.04
13869;BME280;7004;48.206;16.402;2023-05-02T09:24:20;99965.06;;;18.75;56.75
13869;BME280;7004;48.206;16.402;2023-05-02T09:27:01;99981.13;;;17.97;59.14
13869;BME280;7004;48.206;16.402;2023-05-02T09:29:29;99984.81;;;18.06;59.41
13869;BME280;7004;48.206;16.402;2023-05-02T09:32:05;99985.94;;;18.42;58.64
13869;BME280;7004;48.206;16.402;2023-05-02T09:34:32;99982.03;;;17.67;60.21
13869;BME280;7004;48.206;16.402;2023-05-02T09:36:58;99983.69;;;18.76;57.19
13869;BME280;7004;48.206;16.402;2023-05-02T09:39:27;99986.88;;;18.99;57.39
13869;BME280;7004;48.206;16.402;2023-05-02T09:41:54;99987.09;;;19.16;55.85
13869;BME280;7004;48.206;16.402;2023-05-02T09:44:23;99989.31;;;18.34;57.39
13869;BME280;7004;48.206;16.402;2023-05-02T09:46:55;99992.25;;;18.70;57.16
13869;BME280;7004;48.206;16.402;2023-05-02T09:49:51;99987.78;;;18.32;58.79
13869;BME280;7004;48.206;16.402;2023-05-02T09:52:19;99997.16;;;17.97;60.07
13869;BME280;7004;48.206;16.402;2023-05-02T09:54:48;100004.69;;;18.42;58.29
13869;BME280;7004;48.206;16.402;2023-05-02T09:57:18;100009.72;;;18.16;58.76
13869;BME280;7004;48.206;16.402;2023-05-02T09:59:57;100004.94;;;18.78;57.52
13869;BME280;7004;48.206;16.402;2023-05-02T10:02:29;100001.69;;;18.65;57.46
13869;BME280;7004;48.206;16.402;2023-05-02T10:04:57;100004.25;;;18.56;58.21
13869;BME280;7004;48.206;16.402;2023-05-02T10:07:25;99999.00;;;18.65;56.98
13869;BME280;7004;48.206;16.402;2023-05-02T10:09:53;99987.06;;;18.79;56.19
13869;BME280;7004;48.206;16.402;2023-05-02T10:12:25;100000.72;;;18.46;57.78
13869;BME280;7004;48.206;16.402;2023-05-02T10:15:01;100003.25;;;18.87;57.78
13869;BME280;7004;48.206;16.402;2023-05-02T10:17:31;100011.72;;;18.24;58.72
13869;BME280;7004;48.206;16.402;2023-05-02T10:20:06;100014.66;;;18.30;58.52
13869;BME280;7004;48.206;16.402;2023-05-02T10:22:34;100008.03;;;18.44;58.98
13869;BME280;7004;48.206;16.402;2023-05-02T10:25:02;99997.75;;;18.88;56.98
13869;BME280;7004;48.206;16.402;2023-05-02T10:27:32;100006.78;;;18.77;58.44
13869;BME280;7004;48.206;16.402;2023-05-02T10:29:59;99994.53;;;18.75;57.42
13869;BME280;7004;48.206;16.402;2023-05-02T10:32:28;99997.13;;;19.14;56.89
13869;BME280;7004;48.206;16.402;2023-05-02T10:35:05;100004.50;;;18.73;57.63
13869;BME280;7004;48.206;16.402;2023-05-02T10:37:35;100003.38;;;19.05;56.00
13869;BME280;7004;48.206;16.402;2023-05-02T10:40:08;100009.16;;;18.81;56.85
13869;BME280;7004;48.206;16.402;2023-05-02T10:42:39;100010.28;;;18.88;57.88
13869;BME280;7004;48.206;16.402;2023-05-02T10:45:30;100011.00;;;18.51;57.27
13869;BME280;7004;48.206;16.402;2023-05-02T10:48:16;100015.34;;;18.23;59.16
13869;BME280;7004;48.206;16.402;2023-05-02T10:50:55;100009.16;;;18.61;57.71
13869;BME280;7004;48.206;16.402;2023-05-02T10:53:33;100018.63;;;18.55;58.97
13869;BME280;7004;48.206;16.402;2023-05-02T10:56:19;100011.44;;;18.56;59.13
13869;BME280;7004;48.206;16.402;2023-05-02T10:59:27;100001.41;;;18.39;61.10
13869;BME280;7004;48.206;16.402;2023-05-02T11:01:53;100010.00;;;18.52;60.12
13869;BME280;7004;48.206;16.402;2023-05-02T11:04:19;100012.97;;;18.68;60.39
13869;BME280;7004;48.206;16.402;2023-05-02T11:11:50;100014.50;;;19.00;60.50
13869;BME280;7004;48.206;16.402;2023-05-02T11:24:44;100018.47;;;18.67;62.25
13869;BME280;7004;48.206;16.402;2023-05-02T11:30:07;100015.34;;;19.01;61.49
13869;BME280;7004;48.206;16.402;2023-05-02T11:35:22;100020.16;;;18.77;61.00
13869;BME280;7004;48.206;16.402;2023-05-02T11:38:03;100027.06;;;18.99;59.91
13869;BME280;7004;48.206;16.402;2023-05-02T11:40:30;100024.69;;;18.77;60.69
13869;BME280;7004;48.206;16.402;2023-05-02T11:42:58;100014.53;;;18.71;62.82
13869;BME280;7004;48.206;16.402;2023-05-02T11:45:36;100018.91;;;18.52;61.34
13869;BME280;7004;48.206;16.402;2023-05-02T11:48:07;100010.88;;;19.66;59.74
13869;BME280;7004;48.206;16.402;2023-05-02T11:50:43;100017.66;;;19.70;58.40
13869;BME280;7004;48.206;16.402;2023-05-02T11:53:15;100021.50;;;19.58;58.33
13869;BME280;7004;48.206;16.402;2023-05-02T11:55:53;100019.97;;;19.18;58.19
13869;BME280;7004;48.206;16.402;2023-05-02T11:58:23;100024.28;;;19.29;58.95
13869;BME280;7004;48.206;16.402;2023-05-02T12:00:51;100020.38;;;19.23;58.24
13869;BME280;7004;48.206;16.402;2023-05-02T12:03:36;100018.59;;;20.24;55.97
13869;BME280;7004;48.206;16.402;2023-05-02T12:06:11;100016.94;;;20.59;54.00
13869;BME280;7004;48.206;16.402;2023-05-02T12:08:39;100011.50;;;20.95;53.29
13869;BME280;7004;48.206;16.402;2023-05-02T12:11:06;100013.16;;;20.16;54.29
13869;BME280;7004;48.206;16.402;2023-05-02T12:13:32;100015.97;;;19.97;55.02
13869;BME280;7004;48.206;16.402;2023-05-02T12:15:58;100012.91;;;20.10;55.20
13869;BME280;7004;48.206;16.402;2023-05-02T12:18:25;100006.56;;;20.82;54.31
13869;BME280;7004;48.206;16.402;2023-05-02T12:20:54;100024.28;;;19.66;55.66
13869;BME280;7004;48.206;16.402;2023-05-02T12:23:23;100016.66;;;19.71;56.12
13869;BME280;7004;48.206;16.402;2023-05-02T12:25:51;100015.78;;;19.80;54.89
13869;BME280;7004;48.206;16.402;2023-05-02T12:28:18;100020.22;;;19.62;56.27
13869;BME280;7004;48.206;16.402;2023-05-02T12:30:47;100021.09;;;19.53;57.30
13869;BME280;7004;48.206;16.402;2023-05-02T12:33:14;100018.28;;;19.54;56.87
13869;BME280;7004;48.206;16.402;2023-05-02T12:35:42;100017.69;;;20.16;56.33
13869;BME280;7004;48.206;16.402;2023-05-02T12:38:15;100025.72;;;19.33;57.93
13869;BME280;7004;48.206;16.402;2023-05-02T12:40:53;100026.75;;;19.03;57.52
13869;BME280;7004;48.206;16.402;2023-05-02T12:43:24;100019.31;;;19.81;56.24
13869;BME280;7004;48.206;16.402;2023-05-02T12:46:09;100019.59;;;20.41;56.54
13869;BME280;7004;48.206;16.402;2023-05-02T12:48:35;100017.84;;;20.14;55.25
13869;BME280;7004;48.206;16.402;2023-05-02T12:51:01;100027.81;;;20.22;55.99
13869;BME280;7004;48.206;16.402;2023-05-02T12:53:41;100026.16;;;19.93;55.91
13869;BME280;7004;48.206;16.402;2023-05-02T12:56:09;100029.34;;;19.32;56.59
13869;BME280;7004;48.206;16.402;2023-05-02T12:58:46;100030.38;;;19.58;56.60
13869;BME280;7004;48.206;16.402;2023-05-02T13:01:13;100034.81;;;20.05;55.36
13869;BME280;7004;48.206;16.402;2023-05-02T13:03:41;100033.81;;;19.04;59.36
13869;BME280;7004;48.206;16.402;2023-05-02T13:06:07;100035.38;;;18.96;58.95
13869;BME280;7004;48.206;16.402;2023-05-02T13:08:34;100044.25;;;18.39;59.90
13869;BME280;7004;48.206;16.402;2023-05-02T13:11:02;100035.50;;;19.52;57.23
13869;BME280;7004;48.206;16.402;2023-05-02T13:13:29;100035.72;;;19.31;57.46
13869;BME280;7004;48.206;16.402;2023-05-02T13:15:55;100047.91;;;18.67;58.98
13869;BME280;7004;48.206;16.402;2023-05-02T13:18:22;100044.53;;;18.74;58.30
13869;BME280;7004;48.206;16.402;2023-05-02T13:20:48;100051.59;;;18.85;57.67
13869;BME280;7004;48.206;16.402;2023-05-02T13:23:14;100045.81;;;18.70;57.44
13869;BME280;7004;48.206;16.402;2023-05-02T13:25:42;100045.53;;;19.03;58.19
13869;BME280;7004;48.206;16.402;2023-05-02T13:28:08;100055.53;;;18.91;57.58
13869;BME280;7004;48.206;16.402;2023-05-02T13:30:34;100046.94;;;18.68;57.75
13869;BME280;7004;48.206;16.402;2023-05-02T13:33:00;100060.56;;;18.16;59.18
13869;BME280;7004;48.206;16.402;2023-05-02T13:35:26;100050.69;;;18.17;59.48
13869;BME280;7004;48.206;16.402;2023-05-02T13:37:53;100058.88;;;18.44;58.87
13869;BME280;7004;48.206;16.402;2023-05-02T13:40:19;100052.16;;;18.40;58.78